KALM/ALM METAR and TAF weather

Enter ICAO airport designator
Station Type Date Time Source
KALM METAR 2018/12/12 23:55 UTC NOAA

KALM 122355Z AUTO 13006KT 10SM CLR 13/03 A2986 RMK AO2


Station Type Date Time Source
KALM Decoded METAR 2018/12/12 23:55 UTC NOAA

Alamogordo-White, NM, United States (KALM) 32-50N 105-59W
Dec 12, 2018 - 06:55 PM EST / 2018.12.12 2355 UTC
Wind: from the SE (130 degrees) at 7 MPH (6 KT):0
Visibility: 10 mile(s):0
Sky conditions: clear
Temperature: 55 F (13 C)
Dew Point: 37 F (3 C)
Relative Humidity: 50%
Pressure (altimeter): 29.86 in. Hg (1011 hPa)
ob: KALM 122355Z AUTO 13006KT 10SM CLR 13/03 A2986 RMK AO2
cycle: 0

Station Type Date Time Source
KALM TAF UTC NOAA

Error!


Example: see airport list